createdAt,value
2018-07-03T00:03:00.452Z,89.30
2018-07-03T00:07:04.712Z,89.40
2018-07-03T00:11:09.201Z,89.80
2018-07-03T00:15:13.475Z,90.20
2018-07-03T00:19:17.703Z,89.80
2018-07-03T00:23:22.038Z,89.70
2018-07-03T00:27:26.294Z,90.50
2018-07-03T00:31:30.570Z,90.90
2018-07-03T00:35:34.835Z,91.10
2018-07-03T00:39:39.151Z,90.70
2018-07-03T00:43:43.449Z,91.00
2018-07-03T00:47:47.708Z,90.30
2018-07-03T00:51:52.112Z,89.30
2018-07-03T00:55:56.564Z,89.40
2018-07-03T01:00:11.664Z,88.90
2018-07-03T01:04:15.945Z,88.40
2018-07-03T01:08:20.267Z,89.30
2018-07-03T01:12:24.562Z,89.40
2018-07-03T01:16:29.074Z,88.70
2018-07-03T01:20:33.300Z,87.30
2018-07-03T01:24:37.873Z,86.70
2018-07-03T01:28:42.100Z,87.60
2018-07-03T01:32:46.536Z,89.10
2018-07-03T01:36:50.800Z,88.60
2018-07-03T01:40:55.045Z,88.70
2018-07-03T01:44:59.259Z,88.00
2018-07-03T01:49:03.641Z,87.10
2018-07-03T01:53:07.961Z,86.00
2018-07-03T01:57:12.308Z,86.30
2018-07-03T02:01:16.592Z,86.50
2018-07-03T02:05:20.887Z,87.90
2018-07-03T02:09:25.281Z,87.30
2018-07-03T02:13:29.486Z,88.70
2018-07-03T02:17:33.733Z,89.00
2018-07-03T02:21:38.044Z,90.30
2018-07-03T02:25:42.235Z,90.20
2018-07-03T02:29:46.582Z,90.10
2018-07-03T02:33:50.771Z,90.20
2018-07-03T02:37:54.966Z,90.30
2018-07-03T02:41:59.441Z,90.70
2018-07-03T02:46:05.045Z,90.60
2018-07-03T02:50:09.366Z,90.50
2018-07-03T02:54:13.812Z,90.90
2018-07-03T02:58:18.128Z,90.60
2018-07-03T03:02:22.429Z,90.40
2018-07-03T03:06:26.651Z,90.20
2018-07-03T03:10:30.957Z,90.70
2018-07-03T03:14:35.342Z,90.60
2018-07-03T03:18:39.574Z,90.80
2018-07-03T03:22:43.781Z,91.60
2018-07-03T03:26:48.081Z,90.90
2018-07-03T03:30:52.393Z,91.40
2018-07-03T03:34:57.670Z,91.30
2018-07-03T03:39:01.835Z,91.20
2018-07-03T03:43:06.089Z,91.30
2018-07-03T03:47:10.343Z,91.30
2018-07-03T03:51:14.533Z,90.90
2018-07-03T03:55:19.041Z,91.20
2018-07-03T03:59:23.316Z,91.40
2018-07-03T04:03:27.655Z,91.40
2018-07-03T04:07:31.979Z,92.10
2018-07-03T04:11:36.411Z,91.30
2018-07-03T04:15:40.902Z,91.10
2018-07-03T04:19:45.230Z,90.60
2018-07-03T04:23:49.459Z,90.00
2018-07-03T04:27:53.839Z,89.60
2018-07-03T04:31:58.049Z,89.70
2018-07-03T04:36:02.365Z,89.50
2018-07-03T04:40:06.791Z,90.00
2018-07-03T04:44:10.995Z,89.60
2018-07-03T04:48:15.372Z,89.70
2018-07-03T04:52:19.620Z,88.90
2018-07-03T04:56:23.980Z,87.10
2018-07-03T05:00:28.272Z,86.40
2018-07-03T05:04:32.516Z,84.90
2018-07-03T05:08:37.065Z,85.40
2018-07-03T05:12:41.346Z,82.60
2018-07-03T05:16:45.710Z,81.90
2018-07-03T05:20:49.945Z,79.50
2018-07-03T05:24:54.186Z,79.50
2018-07-03T05:28:58.481Z,77.90
2018-07-03T05:33:02.692Z,76.70
2018-07-03T05:37:07.033Z,74.80
2018-07-03T05:41:11.493Z,75.10
2018-07-03T05:45:15.715Z,74.50
2018-07-03T05:49:19.959Z,72.20
2018-07-03T05:53:24.320Z,70.60
2018-07-03T05:57:28.658Z,68.90
2018-07-03T06:01:33.032Z,68.50
2018-07-03T06:05:37.300Z,67.20
2018-07-03T06:09:41.616Z,66.90
2018-07-03T06:13:46.062Z,67.90
2018-07-03T06:17:50.442Z,66.50
2018-07-03T06:21:55.878Z,67.60
2018-07-03T06:26:00.308Z,69.00
2018-07-03T06:30:04.650Z,69.20
2018-07-03T06:34:08.852Z,67.50
2018-07-03T06:38:13.209Z,65.80
2018-07-03T06:42:17.462Z,63.10
2018-07-03T06:46:21.807Z,64.30
2018-07-03T06:50:26.157Z,62.90
2018-07-03T06:54:30.404Z,64.40
2018-07-03T06:58:34.817Z,62.30
2018-07-03T07:02:39.124Z,62.40
2018-07-03T07:06:43.472Z,62.00
2018-07-03T07:10:47.677Z,59.00
2018-07-03T07:14:52.028Z,60.10
2018-07-03T07:18:56.415Z,58.00
2018-07-03T07:23:00.642Z,57.60
2018-07-03T07:27:05.269Z,58.10
2018-07-03T07:31:09.775Z,59.50
2018-07-03T07:35:14.144Z,60.60
2018-07-03T07:39:18.357Z,60.40
2018-07-03T07:43:22.694Z,54.10
2018-07-03T07:47:26.966Z,52.90
2018-07-03T07:51:31.168Z,54.30
2018-07-03T07:55:35.557Z,54.10
2018-07-03T07:59:39.803Z,51.00
2018-07-03T08:03:44.249Z,50.20
2018-07-03T08:07:48.671Z,51.20
2018-07-03T08:11:53.022Z,49.50
2018-07-03T08:15:57.299Z,50.10
2018-07-03T08:20:01.567Z,50.40
2018-07-03T08:24:05.951Z,48.70
2018-07-03T08:28:10.870Z,47.30
2018-07-03T08:32:15.186Z,48.50
2018-07-03T08:36:19.528Z,48.30
2018-07-03T08:40:23.832Z,49.30
2018-07-03T08:44:28.178Z,48.10
2018-07-03T08:48:32.556Z,51.80
2018-07-03T08:52:36.964Z,49.70
2018-07-03T08:56:41.222Z,47.80
2018-07-03T09:00:45.603Z,48.30
2018-07-03T09:04:50.000Z,46.50
2018-07-03T09:08:54.445Z,48.40
2018-07-03T09:12:58.823Z,48.20
2018-07-03T09:17:08.293Z,46.50
2018-07-03T09:21:12.513Z,48.90
2018-07-03T09:25:16.864Z,47.60
2018-07-03T09:29:21.180Z,47.50
2018-07-03T09:33:25.462Z,49.50
2018-07-03T09:37:29.709Z,49.20
2018-07-03T09:41:35.181Z,49.60
2018-07-03T09:45:39.453Z,49.90
2018-07-03T09:49:43.747Z,52.50
2018-07-03T09:53:48.075Z,50.30
2018-07-03T09:57:52.613Z,49.90
2018-07-03T10:01:56.971Z,49.30
2018-07-03T10:06:01.516Z,50.90
2018-07-03T10:10:05.895Z,53.70
2018-07-03T10:14:10.505Z,50.30
2018-07-03T10:18:14.773Z,52.90
2018-07-03T10:22:19.044Z,51.50
2018-07-03T10:26:23.467Z,52.60
2018-07-03T10:30:27.677Z,53.00
2018-07-03T10:34:31.969Z,52.30
2018-07-03T10:38:36.171Z,52.70
2018-07-03T10:42:41.443Z,52.20
2018-07-03T10:46:45.682Z,51.00
2018-07-03T10:50:50.052Z,51.10
2018-07-03T10:54:54.276Z,52.60
2018-07-03T10:58:58.557Z,52.60
2018-07-03T11:03:02.925Z,57.10
2018-07-03T11:07:07.365Z,54.60
2018-07-03T11:11:11.636Z,52.50
2018-07-03T11:15:15.935Z,53.40
2018-07-03T11:19:20.144Z,48.80
2018-07-03T11:23:24.473Z,48.50
2018-07-03T11:27:28.774Z,51.00
2018-07-03T11:31:33.008Z,49.80
2018-07-03T11:35:37.432Z,51.70
2018-07-03T11:39:41.656Z,48.20
2018-07-03T11:43:45.889Z,49.10
2018-07-03T11:47:50.174Z,51.50
2018-07-03T11:51:54.384Z,48.00
2018-07-03T11:55:58.816Z,45.30
2018-07-03T12:00:04.217Z,43.30
2018-07-03T12:04:08.538Z,43.90
2018-07-03T12:08:14.475Z,41.60
2018-07-03T12:12:18.704Z,38.60
2018-07-03T12:16:22.974Z,36.90
2018-07-03T12:20:27.253Z,36.40
2018-07-03T12:24:32.176Z,37.50
2018-07-03T12:28:38.490Z,33.80
2018-07-03T12:32:42.808Z,32.50
2018-07-03T12:36:48.964Z,32.20
2018-07-03T12:40:54.438Z,32.00
2018-07-03T12:44:58.856Z,33.70
2018-07-03T12:49:03.425Z,34.00
2018-07-03T12:53:10.243Z,37.90
2018-07-03T12:57:17.266Z,40.20
2018-07-03T13:01:21.781Z,41.50
2018-07-03T13:05:26.242Z,42.00
2018-07-03T13:09:30.514Z,42.50
2018-07-03T13:13:34.941Z,43.60
2018-07-03T13:17:39.165Z,42.60
2018-07-03T13:21:43.353Z,41.70
2018-07-03T13:25:47.628Z,38.90
2018-07-03T13:29:51.955Z,36.90
2018-07-03T13:33:56.228Z,35.10
2018-07-03T13:38:00.466Z,32.00
2018-07-03T13:42:04.771Z,30.70
2018-07-03T13:46:09.034Z,32.80
2018-07-03T13:50:13.311Z,33.20
2018-07-03T13:54:17.553Z,31.30
2018-07-03T13:58:21.887Z,34.20
2018-07-03T14:02:26.585Z,38.10
2018-07-03T14:06:31.082Z,33.90
2018-07-03T14:10:35.448Z,35.60
2018-07-03T14:14:39.697Z,32.50
2018-07-03T14:18:43.965Z,33.70
2018-07-03T14:22:48.329Z,33.80
2018-07-03T14:26:52.842Z,34.10
2018-07-03T14:30:57.171Z,31.70
2018-07-03T14:35:01.449Z,34.40
2018-07-03T14:39:10.159Z,33.50
2018-07-03T14:43:14.520Z,32.80
2018-07-03T14:47:18.939Z,32.70
2018-07-03T14:51:23.512Z,33.90
2018-07-03T14:55:27.758Z,34.30
2018-07-03T14:59:32.266Z,35.00
2018-07-03T15:03:36.524Z,35.00
2018-07-03T15:07:40.750Z,36.20
2018-07-03T15:11:45.480Z,37.10
2018-07-03T15:15:49.709Z,37.90
2018-07-03T15:19:58.273Z,37.40
2018-07-03T15:24:02.853Z,37.10
2018-07-03T15:28:07.324Z,40.80
2018-07-03T15:32:11.590Z,39.40
2018-07-03T15:36:16.045Z,38.90
2018-07-03T15:40:20.324Z,38.00
2018-07-03T15:44:36.383Z,40.20
2018-07-03T15:48:40.619Z,39.00
2018-07-03T15:52:44.855Z,43.20
2018-07-03T15:56:49.347Z,41.70
2018-07-03T16:00:53.607Z,40.30
2018-07-03T16:05:11.073Z,42.80
2018-07-03T16:09:16.379Z,42.30
2018-07-03T16:13:20.618Z,42.10
2018-07-03T16:17:24.928Z,40.50
2018-07-03T16:21:29.174Z,41.20
2018-07-03T16:25:33.605Z,45.80
2018-07-03T16:29:37.935Z,49.40
2018-07-03T16:33:42.196Z,51.10
2018-07-03T16:37:46.489Z,53.30
2018-07-03T16:41:50.804Z,52.30
2018-07-03T16:45:55.065Z,56.10
2018-07-03T16:49:59.400Z,60.00
2018-07-03T16:54:03.717Z,59.00
2018-07-03T16:58:08.145Z,59.30
2018-07-03T17:02:12.509Z,59.00
2018-07-03T17:06:16.742Z,62.00
2018-07-03T17:10:21.396Z,63.40
2018-07-03T17:14:27.419Z,61.80
2018-07-03T17:18:33.291Z,63.40
2018-07-03T17:22:37.973Z,64.70
2018-07-03T17:26:42.214Z,65.60
2018-07-03T17:30:46.534Z,67.40
2018-07-03T17:34:50.893Z,70.30
2018-07-03T17:38:55.409Z,70.50
2018-07-03T17:44:12.906Z,70.80
2018-07-03T17:48:18.335Z,71.40
2018-07-03T17:52:22.670Z,73.60
2018-07-03T17:56:26.965Z,72.80
2018-07-03T18:00:31.579Z,75.70
2018-07-03T18:04:35.834Z,77.30
2018-07-03T18:08:40.296Z,77.50
2018-07-03T18:12:44.581Z,78.40
2018-07-03T18:16:48.943Z,79.40
2018-07-03T18:20:53.381Z,79.50
2018-07-03T18:24:57.680Z,79.90
2018-07-03T18:29:02.031Z,80.30
2018-07-03T18:33:06.444Z,81.50
2018-07-03T18:37:10.759Z,81.50
2018-07-03T18:41:15.189Z,81.40
2018-07-03T18:45:19.517Z,82.40
2018-07-03T18:49:23.898Z,83.10
2018-07-03T18:53:28.257Z,83.90
2018-07-03T18:57:32.686Z,84.00
2018-07-03T19:01:37.081Z,84.30
2018-07-03T19:05:41.424Z,84.50
2018-07-03T19:09:46.954Z,85.80
2018-07-03T19:13:51.716Z,86.40
2018-07-03T19:17:56.100Z,87.60
2018-07-03T19:22:00.362Z,88.30
2018-07-03T19:26:04.837Z,88.50
2018-07-03T19:30:09.410Z,87.90
2018-07-03T19:34:14.040Z,88.90
2018-07-03T19:38:18.715Z,88.80
2018-07-03T19:42:23.207Z,89.30
2018-07-03T19:46:27.788Z,90.30
2018-07-03T19:50:32.196Z,88.90
2018-07-03T19:54:36.924Z,90.60
2018-07-03T19:58:41.700Z,90.10
2018-07-03T20:02:46.126Z,90.50
2018-07-03T20:06:50.467Z,90.00
2018-07-03T20:10:55.600Z,90.20
2018-07-03T20:15:00.210Z,90.40
2018-07-03T20:19:05.046Z,90.80
2018-07-03T20:23:09.496Z,89.30
2018-07-03T20:27:13.927Z,88.10
2018-07-03T20:31:18.581Z,89.60
2018-07-03T20:35:22.900Z,90.30
2018-07-03T20:39:27.398Z,90.30
2018-07-03T20:43:33.131Z,90.40
2018-07-03T20:47:37.508Z,90.70
2018-07-03T20:51:41.737Z,90.90
2018-07-03T20:55:46.158Z,91.60
2018-07-03T20:59:50.430Z,92.00
2018-07-03T21:03:55.221Z,92.20
2018-07-03T21:07:59.583Z,91.90
2018-07-03T21:12:05.714Z,91.80
2018-07-03T21:16:15.725Z,90.90
2018-07-03T21:20:23.733Z,91.30
2018-07-03T21:24:28.793Z,91.60
2018-07-03T21:28:33.676Z,91.60
2018-07-03T21:32:38.020Z,92.10
2018-07-03T21:36:42.431Z,93.00
2018-07-03T21:40:47.628Z,93.90
2018-07-03T21:44:51.957Z,94.60
2018-07-03T21:48:56.279Z,95.00
2018-07-03T21:53:00.490Z,95.30
2018-07-03T21:57:04.840Z,95.60
2018-07-03T22:01:09.273Z,95.90
2018-07-03T22:05:13.460Z,95.90
2018-07-03T22:09:17.761Z,95.80
2018-07-03T22:13:21.991Z,95.70
2018-07-03T22:17:26.249Z,95.30
2018-07-03T22:21:30.665Z,95.20
2018-07-03T22:25:34.885Z,95.50
2018-07-03T22:29:39.070Z,95.40
2018-07-03T22:33:43.323Z,95.80
2018-07-03T22:37:47.567Z,95.90
2018-07-03T22:41:51.759Z,96.20
2018-07-03T22:45:56.232Z,96.50
2018-07-03T22:50:00.470Z,96.20
2018-07-03T22:54:05.084Z,96.20
2018-07-03T22:58:09.313Z,95.80
2018-07-03T23:02:13.548Z,95.60
2018-07-03T23:06:18.001Z,96.20
2018-07-03T23:10:22.228Z,96.70
2018-07-03T23:14:26.603Z,96.50
2018-07-03T23:18:30.996Z,96.70
2018-07-03T23:22:35.239Z,96.20
2018-07-03T23:26:39.553Z,95.80
2018-07-03T23:30:43.823Z,96.20
2018-07-03T23:34:48.107Z,95.70
2018-07-03T23:38:52.418Z,95.60
2018-07-03T23:42:56.641Z,96.10
2018-07-03T23:47:11.769Z,96.30
2018-07-03T23:51:26.747Z,96.90
2018-07-03T23:55:41.919Z,96.60
2018-07-03T23:59:57.101Z,96.60
